Time;durP1;ratioP1;P1;durP2;ratioP2;P2;SDS_P1;SDS_P2;PMS_P1;PMS_P2;Temp;Humidity;BMP_temperature;BMP_pressure;BME280_temperature;BME280_humidity;BME280_pressure;Samples;Min_cycle;Max_cycle;Signal;HPM_P1;HPM_P2
2023/09/18 00:01:12;;;;;;;30.58;25.50;;;17.60;99.90;;;;;;5092751;28;20076;-56
2023/09/18 00:03:38;;;;;;;35.80;26.60;;;17.70;99.90;;;;;;5092337;28;20056;-55
2023/09/18 00:06:03;;;;;;;36.28;28.55;;;17.80;99.90;;;;;;5092464;28;20068;-53
2023/09/18 00:08:29;;;;;;;37.45;27.13;;;17.80;99.90;;;;;;5093078;28;20379;-55
2023/09/18 00:10:55;;;;;;;28.42;24.45;;;17.80;99.90;;;;;;5092951;28;20452;-56
2023/09/18 00:13:21;;;;;;;31.73;26.13;;;17.80;99.90;;;;;;5092591;28;20097;-56
2023/09/18 00:15:48;;;;;;;35.22;27.50;;;17.80;99.90;;;;;;5091315;28;20040;-56
2023/09/18 00:18:17;;;;;;;32.95;26.95;;;17.80;99.90;;;;;;5092454;28;20040;-54
2023/09/18 00:20:44;;;;;;;35.03;26.27;;;17.80;99.90;;;;;;5092293;28;20238;-56
2023/09/18 00:23:10;;;;;;;32.95;27.05;;;17.80;99.90;;;;;;5092346;28;20038;-55
2023/09/18 00:25:36;;;;;;;37.70;26.80;;;17.70;99.90;;;;;;5091948;28;20405;-56
2023/09/18 00:28:03;;;;;;;29.92;24.50;;;17.80;99.90;;;;;;5071532;28;20033;-55
2023/09/18 00:30:28;;;;;;;27.38;23.77;;;17.80;99.90;;;;;;5072001;28;20036;-55
2023/09/18 00:32:54;;;;;;;29.23;25.60;;;17.80;99.90;;;;;;5071646;28;20044;-55
2023/09/18 00:35:22;;;;;;;30.80;25.98;;;17.80;99.90;;;;;;5071782;28;20033;-56
2023/09/18 00:37:47;;;;;;;32.13;27.50;;;17.80;99.90;;;;;;5071683;28;20448;-55
2023/09/18 00:40:14;;;;;;;26.50;23.70;;;17.90;99.90;;;;;;5071967;28;20036;-54
2023/09/18 00:42:40;;;;;;;30.65;26.25;;;17.80;99.90;;;;;;5071703;28;20051;-53
2023/09/18 00:45:06;;;;;;;33.97;27.30;;;17.90;99.90;;;;;;5072109;28;20403;-54
2023/09/18 00:47:32;;;;;;;29.77;25.60;;;17.90;99.90;;;;;;5071567;28;20398;-55
2023/09/18 00:49:58;;;;;;;31.88;28.13;;;17.90;99.90;;;;;;5071566;28;20077;-56
2023/09/18 00:52:24;;;;;;;34.20;28.50;;;17.80;99.90;;;;;;5071563;28;20048;-55
2023/09/18 00:54:51;;;;;;;32.58;29.10;;;17.80;99.90;;;;;;5071606;28;20118;-55
2023/09/18 00:57:17;;;;;;;32.42;27.58;;;17.80;99.90;;;;;;5071561;28;20047;-53
2023/09/18 00:59:44;;;;;;;33.05;28.45;;;17.90;99.90;;;;;;5071722;28;20120;-54
2023/09/18 01:02:10;;;;;;;32.25;28.75;;;17.80;99.90;;;;;;5071444;28;20129;-54
2023/09/18 01:04:37;;;;;;;38.05;31.00;;;17.70;99.90;;;;;;5071424;28;20521;-54
2023/09/18 01:07:04;;;;;;;35.25;30.60;;;17.70;99.90;;;;;;5072447;28;20119;-56
2023/09/18 01:09:34;;;;;;;32.25;28.95;;;17.80;99.90;;;;;;5091825;28;20035;-54
2023/09/18 01:12:06;;;;;;;39.53;33.53;;;17.70;99.90;;;;;;5091684;28;20047;-55
2023/09/18 01:14:39;;;;;;;41.92;33.45;;;17.70;99.90;;;;;;5063929;28;20044;-54
2023/09/18 01:17:07;;;;;;;40.17;33.75;;;17.80;99.90;;;;;;5091662;28;20039;-54
2023/09/18 01:19:59;;;;;;;41.70;35.00;;;17.70;99.90;;;;;;5091410;28;20072;-54
2023/09/18 01:22:29;;;;;;;36.95;32.88;;;17.70;99.90;;;;;;5089324;28;20051;-55
2023/09/18 01:24:54;;;;;;;44.75;34.47;;;17.80;99.90;;;;;;5091430;28;20386;-54
2023/09/18 01:27:20;;;;;;;37.38;31.92;;;17.80;99.90;;;;;;5076538;28;20032;-55
2023/09/18 01:29:46;;;;;;;41.10;34.38;;;17.80;99.90;;;;;;5071112;28;20041;-55
2023/09/18 01:32:12;;;;;;;40.22;34.28;;;17.80;99.90;;;;;;5071479;28;20055;-54
2023/09/18 01:34:48;;;;;;;44.50;34.88;;;17.80;99.90;;;;;;5071032;28;20041;-54
2023/09/18 01:37:17;;;;;;;39.63;32.22;;;17.90;99.90;;;;;;5070294;28;20056;-55
2023/09/18 01:39:44;;;;;;;36.80;31.65;;;17.80;99.90;;;;;;5075213;28;20050;-54
2023/09/18 01:42:10;;;;;;;38.53;31.15;;;17.80;99.90;;;;;;5075017;28;20119;-55
2023/09/18 01:44:39;;;;;;;38.83;32.50;;;17.90;99.90;;;;;;5074904;28;20502;-55
2023/09/18 01:47:06;;;;;;;;;;;17.80;99.90;;;;;;5075464;28;20044;-56
2023/09/18 01:49:37;;;;;;;41.53;33.60;;;17.80;99.90;;;;;;5074916;28;20006;-56
2023/09/18 01:52:04;;;;;;;40.60;33.22;;;17.80;99.90;;;;;;5074958;28;20044;-56
2023/09/18 01:54:30;;;;;;;37.97;32.50;;;17.70;99.90;;;;;;5074908;28;20033;-53
2023/09/18 01:56:56;;;;;;;40.20;33.10;;;17.70;99.90;;;;;;5074681;28;20074;-55
2023/09/18 01:59:23;;;;;;;39.38;33.13;;;17.80;99.90;;;;;;5087073;28;20044;-56
2023/09/18 02:01:50;;;;;;;38.42;31.67;;;17.80;99.90;;;;;;5093380;28;20044;-54
2023/09/18 02:04:16;;;;;;;36.95;31.00;;;17.80;99.90;;;;;;5094756;28;20516;-55
2023/09/18 02:06:41;;;;;;;39.78;33.25;;;17.80;99.90;;;;;;5094938;28;20043;-56
2023/09/18 02:09:08;;;;;;;46.80;34.13;;;17.70;99.90;;;;;;5095094;28;20063;-55
2023/09/18 02:11:40;;;;;;;35.97;32.05;;;17.70;99.90;;;;;;5094687;28;20040;-57
2023/09/18 02:14:07;;;;;;;36.10;32.28;;;17.80;99.90;;;;;;5093318;28;20054;-55
2023/09/18 02:16:37;;;;;;;34.42;30.67;;;17.70;99.90;;;;;;5094685;28;20474;-53
2023/09/18 02:19:04;;;;;;;35.80;30.90;;;17.80;99.90;;;;;;5094739;28;20044;-55
2023/09/18 02:21:30;;;;;;;36.17;28.15;;;17.70;99.90;;;;;;5094765;28;20048;-56
2023/09/18 02:23:56;;;;;;;31.50;28.15;;;17.70;99.90;;;;;;5094344;28;20605;-55
2023/09/18 02:26:24;;;;;;;33.42;29.60;;;17.70;99.90;;;;;;5091647;28;20460;-55
2023/09/18 02:28:55;;;;;;;32.65;28.52;;;17.70;99.90;;;;;;5084614;28;20138;-56
2023/09/18 02:31:22;;;;;;;31.08;27.77;;;17.70;99.90;;;;;;5094600;28;20109;-55
2023/09/18 02:33:48;;;;;;;33.13;27.95;;;17.80;99.90;;;;;;5094194;28;20119;-54
2023/09/18 02:36:14;;;;;;;33.40;28.77;;;17.80;99.90;;;;;;5094088;28;20068;-55
2023/09/18 02:38:40;;;;;;;30.27;26.90;;;17.80;99.90;;;;;;5094220;28;20046;-55
2023/09/18 02:41:06;;;;;;;33.15;29.35;;;17.80;99.90;;;;;;5094248;28;20129;-55
2023/09/18 02:43:31;;;;;;;33.05;27.75;;;17.90;99.90;;;;;;5094468;28;20444;-55
2023/09/18 02:45:57;;;;;;;29.73;26.70;;;17.90;99.90;;;;;;5094196;28;20111;-55
2023/09/18 02:48:23;;;;;;;30.98;27.70;;;17.80;99.90;;;;;;5093927;28;20451;-54
2023/09/18 02:50:48;;;;;;;30.80;26.95;;;17.80;99.90;;;;;;5093582;28;20044;-54
2023/09/18 02:53:22;;;;;;;32.30;26.70;;;17.80;99.90;;;;;;5092747;28;20478;-56
2023/09/18 02:55:51;;;;;;;29.13;26.00;;;17.90;99.90;;;;;;5068131;28;20044;-53
2023/09/18 02:58:17;;;;;;;30.05;25.65;;;17.80;99.90;;;;;;5094110;28;20048;-53
2023/09/18 03:00:44;;;;;;;29.08;25.98;;;17.80;99.90;;;;;;5093612;28;20122;-56
2023/09/18 03:03:10;;;;;;;28.08;24.95;;;17.90;99.90;;;;;;5093864;28;20051;-54
2023/09/18 03:05:36;;;;;;;30.23;26.05;;;17.90;99.90;;;;;;5093582;28;20056;-54
2023/09/18 03:08:02;;;;;;;27.60;24.63;;;17.90;99.90;;;;;;5094006;28;20511;-55
2023/09/18 03:10:32;;;;;;;26.60;23.63;;;17.80;99.90;;;;;;5094017;28;20032;-54
2023/09/18 03:12:57;;;;;;;28.90;25.77;;;17.90;99.90;;;;;;5093733;28;20042;-55
2023/09/18 03:15:23;;;;;;;26.45;23.67;;;17.90;99.90;;;;;;5093948;28;20035;-53
2023/09/18 03:17:50;;;;;;;27.75;24.75;;;17.90;99.90;;;;;;5093760;28;20230;-54
2023/09/18 03:20:16;;;;;;;28.17;25.17;;;17.90;99.90;;;;;;5093563;28;20036;-54
2023/09/18 03:22:42;;;;;;;27.52;24.50;;;17.90;99.90;;;;;;5093174;28;20055;-54
2023/09/18 03:25:08;;;;;;;27.15;24.35;;;17.90;99.90;;;;;;5092103;28;20101;-55
2023/09/18 03:27:33;;;;;;;25.95;23.27;;;17.90;99.90;;;;;;5093410;28;20072;-54
2023/09/18 03:29:59;;;;;;;28.63;23.63;;;17.90;99.90;;;;;;5092297;28;20441;-56
2023/09/18 03:32:25;;;;;;;28.65;24.58;;;17.90;99.90;;;;;;5093242;28;20460;-57
2023/09/18 03:34:51;;;;;;;27.55;22.98;;;17.90;99.90;;;;;;5087854;28;20043;-55
2023/09/18 03:37:17;;;;;;;25.63;22.80;;;17.90;99.90;;;;;;5087842;28;20093;-55
2023/09/18 03:39:42;;;;;;;32.10;23.50;;;17.80;99.90;;;;;;5093013;28;20032;-53
2023/09/18 03:42:08;;;;;;;26.75;22.95;;;17.90;99.90;;;;;;5092898;28;20032;-55
2023/09/18 03:44:33;;;;;;;28.30;23.23;;;17.90;99.90;;;;;;5093093;28;20367;-56
2023/09/18 03:46:59;;;;;;;26.85;23.95;;;17.90;99.90;;;;;;5092707;28;20462;-57
2023/09/18 03:49:26;;;;;;;26.60;23.80;;;17.80;99.90;;;;;;5091796;28;20555;-55
2023/09/18 03:51:52;;;;;;;26.10;23.33;;;17.80;99.90;;;;;;5081283;28;20434;-56
2023/09/18 03:54:17;;;;;;;26.27;21.98;;;17.80;99.90;;;;;;5092791;28;20075;-55
2023/09/18 03:56:43;;;;;;;27.27;21.88;;;17.80;99.90;;;;;;5080993;28;20063;-54
2023/09/18 03:59:08;;;;;;;30.08;24.23;;;17.80;99.90;;;;;;5093036;28;20118;-56
2023/09/18 04:01:34;;;;;;;24.20;21.58;;;17.80;99.90;;;;;;5091696;28;20452;-56
2023/09/18 04:04:00;;;;;;;23.38;20.92;;;17.80;99.90;;;;;;5091273;28;20476;-52
2023/09/18 04:06:36;;;;;;;26.88;21.50;;;17.80;99.90;;;;;;5092754;28;20367;-56
2023/09/18 04:09:02;;;;;;;23.42;20.73;;;17.80;99.90;;;;;;5092719;28;20024;-55
2023/09/18 04:11:32;;;;;;;24.02;21.42;;;17.80;99.90;;;;;;5092318;28;20046;-55
2023/09/18 04:13:59;;;;;;;24.58;21.20;;;17.80;99.90;;;;;;5092522;28;20044;-54
2023/09/18 04:16:26;;;;;;;26.10;20.38;;;17.80;99.90;;;;;;5092404;28;20055;-54
2023/09/18 04:18:51;;;;;;;24.08;20.23;;;17.80;99.90;;;;;;5092497;28;20045;-55
2023/09/18 04:21:17;;;;;;;25.23;20.38;;;17.80;99.90;;;;;;5078995;28;20101;-55
2023/09/18 04:23:43;;;;;;;23.05;20.70;;;17.80;99.90;;;;;;5091304;28;20059;-53
2023/09/18 04:26:09;;;;;;;23.70;20.27;;;17.80;99.90;;;;;;5079983;28;20119;-55
2023/09/18 04:28:34;;;;;;;24.00;19.98;;;17.80;99.90;;;;;;5091554;28;20036;-56
2023/09/18 04:31:00;;;;;;;21.15;18.83;;;17.80;99.90;;;;;;5082295;28;20123;-55
2023/09/18 04:33:28;;;;;;;22.08;19.75;;;17.80;99.90;;;;;;5089790;28;20429;-54
2023/09/18 04:35:54;;;;;;;24.58;18.85;;;17.90;99.90;;;;;;5092454;28;20055;-53
2023/09/18 04:38:19;;;;;;;24.00;19.67;;;17.90;99.90;;;;;;5092388;28;20484;-54
2023/09/18 04:40:45;;;;;;;21.85;18.70;;;17.80;99.90;;;;;;5086622;28;20394;-56
2023/09/18 04:43:11;;;;;;;22.80;19.58;;;17.80;99.90;;;;;;5059473;28;20124;-56
2023/09/18 04:45:37;;;;;;;21.27;18.88;;;17.80;99.90;;;;;;5086048;28;20044;-55
2023/09/18 04:48:05;;;;;;;19.80;17.60;;;17.80;99.90;;;;;;5082266;28;20035;-56
2023/09/18 04:50:33;;;;;;;19.88;17.83;;;17.80;99.90;;;;;;5071757;28;20043;-56
2023/09/18 04:52:59;;;;;;;23.83;17.60;;;17.80;99.90;;;;;;5071825;28;20379;-54
2023/09/18 04:55:25;;;;;;;21.02;18.08;;;17.80;99.90;;;;;;5071516;28;20110;-53
2023/09/18 04:57:50;;;;;;;23.27;17.75;;;17.80;99.90;;;;;;5086798;28;20036;-55
2023/09/18 05:00:16;;;;;;;20.38;18.27;;;17.90;99.90;;;;;;5088492;28;20116;-54
2023/09/18 05:02:42;;;;;;;19.35;17.02;;;17.90;99.90;;;;;;5068314;28;20036;-53
2023/09/18 05:05:11;;;;;;;19.35;17.05;;;17.90;99.90;;;;;;5091514;28;20084;-53
2023/09/18 05:07:36;;;;;;;;;;;17.90;99.90;;;;;;5090847;28;20052;-53
2023/09/18 05:10:04;;;;;;;19.77;17.73;;;17.90;99.90;;;;;;5090353;28;19916;-55
2023/09/18 05:12:30;;;;;;;21.80;17.90;;;17.90;99.90;;;;;;5091345;28;20046;-53
2023/09/18 05:14:58;;;;;;;22.45;17.20;;;17.90;99.90;;;;;;5091235;28;20040;-54
2023/09/18 05:17:52;;;;;;;23.57;17.67;;;17.90;99.90;;;;;;5091797;28;20036;-55
2023/09/18 05:20:17;;;;;;;17.85;15.68;;;18.00;99.90;;;;;;5084142;28;20047;-54
2023/09/18 05:22:44;;;;;;;22.52;18.13;;;18.00;99.90;;;;;;5085426;28;20049;-55
2023/09/18 05:25:10;;;;;;;19.00;17.02;;;18.00;99.90;;;;;;5091409;28;20032;-55
2023/09/18 05:27:43;;;;;;;18.00;16.10;;;18.00;99.90;;;;;;5091402;28;20044;-55
2023/09/18 05:30:14;;;;;;;21.85;17.35;;;18.00;99.90;;;;;;5091485;28;20032;-55
2023/09/18 05:32:41;;;;;;;18.88;16.35;;;18.00;99.90;;;;;;5091451;28;20114;-56
2023/09/18 05:35:10;;;;;;;20.10;15.63;;;18.00;99.90;;;;;;5091471;28;20085;-54
2023/09/18 05:37:37;;;;;;;16.98;14.93;;;18.00;99.90;;;;;;5091252;28;20393;-56
2023/09/18 05:40:09;;;;;;;17.10;15.27;;;18.10;99.90;;;;;;5091448;28;20036;-56
2023/09/18 05:42:39;;;;;;;17.05;14.13;;;18.10;99.90;;;;;;5091304;28;20040;-54
2023/09/18 05:45:06;;;;;;;21.13;15.85;;;18.10;99.90;;;;;;5091336;28;20036;-55
2023/09/18 05:47:33;;;;;;;17.63;15.73;;;18.20;99.90;;;;;;5091202;28;20051;-53
2023/09/18 05:49:59;;;;;;;16.80;14.35;;;18.20;99.90;;;;;;5089609;28;20028;-56
2023/09/18 05:52:25;;;;;;;16.20;14.45;;;18.20;99.90;;;;;;5091523;28;20169;-56
2023/09/18 05:54:51;;;;;;;16.20;13.65;;;18.20;99.90;;;;;;5091138;28;20032;-57
2023/09/18 05:57:17;;;;;;;17.98;14.35;;;18.30;99.90;;;;;;5091411;28;20040;-55
2023/09/18 05:59:46;;;;;;;18.10;15.02;;;18.30;99.90;;;;;;5091069;28;20040;-54
2023/09/18 06:02:12;;;;;;;19.70;14.48;;;18.30;99.90;;;;;;5090922;28;20036;-54
2023/09/18 06:04:38;;;;;;;18.13;13.50;;;18.30;99.90;;;;;;5090943;28;20136;-54
2023/09/18 06:07:04;;;;;;;14.52;13.02;;;18.40;99.90;;;;;;5088786;28;20079;-53
2023/09/18 06:09:29;;;;;;;17.35;12.88;;;18.40;99.90;;;;;;5091258;28;20055;-54
2023/09/18 06:11:55;;;;;;;20.92;13.30;;;18.40;99.90;;;;;;5091033;28;20474;-57
2023/09/18 06:14:21;;;;;;;17.75;12.82;;;18.40;99.90;;;;;;5090970;28;20119;-54
2023/09/18 06:16:47;;;;;;;18.08;11.85;;;18.40;99.90;;;;;;5090909;28;20028;-55
2023/09/18 06:19:13;;;;;;;13.10;11.70;;;18.40;99.90;;;;;;5091045;28;20479;-53
2023/09/18 06:21:39;;;;;;;14.02;11.65;;;18.40;99.90;;;;;;5089473;28;20051;-55
2023/09/18 06:24:06;;;;;;;13.63;12.02;;;18.50;99.90;;;;;;5091066;28;20393;-54
2023/09/18 06:26:31;;;;;;;16.75;11.77;;;18.50;99.90;;;;;;5094537;28;20044;-56
2023/09/18 06:28:57;;;;;;;13.00;10.80;;;18.40;99.90;;;;;;5094605;28;20035;-54
2023/09/18 06:31:23;;;;;;;14.13;11.00;;;18.50;99.90;;;;;;5094754;28;20121;-55
2023/09/18 06:33:49;;;;;;;16.70;11.38;;;18.40;99.90;;;;;;5094383;28;20470;-55
2023/09/18 06:36:14;;;;;;;12.45;10.70;;;18.50;99.90;;;;;;5094533;28;20035;-55
2023/09/18 06:38:40;;;;;;;14.45;10.95;;;18.50;99.90;;;;;;5094534;28;20093;-56
2023/09/18 06:41:06;;;;;;;12.52;10.68;;;18.50;99.90;;;;;;5094184;28;20489;-54
2023/09/18 06:43:31;;;;;;;15.60;10.18;;;18.50;99.90;;;;;;5094280;28;20449;-55
2023/09/18 06:46:00;;;;;;;16.67;9.95;;;18.50;99.90;;;;;;5094121;28;20086;-55
2023/09/18 06:48:26;;;;;;;17.30;10.48;;;18.60;99.90;;;;;;5093975;28;20032;-55
2023/09/18 06:50:51;;;;;;;18.20;10.25;;;18.50;99.90;;;;;;5075718;28;20047;-57
2023/09/18 06:53:17;;;;;;;13.43;10.38;;;18.50;99.90;;;;;;5093752;28;20028;-56
2023/09/18 06:55:43;;;;;;;11.52;9.65;;;18.60;99.90;;;;;;5094196;28;20131;-57
2023/09/18 06:58:09;;;;;;;15.43;9.43;;;18.50;99.90;;;;;;5093634;28;20089;-57
2023/09/18 07:00:35;;;;;;;14.07;10.35;;;18.60;99.90;;;;;;5094087;28;20036;-56
2023/09/18 07:03:00;;;;;;;12.85;9.65;;;18.60;99.90;;;;;;5093659;28;20043;-55
2023/09/18 07:05:26;;;;;;;18.67;11.48;;;18.60;99.90;;;;;;5093541;28;20190;-55
2023/09/18 07:07:52;;;;;;;14.30;11.55;;;18.60;99.90;;;;;;5093561;28;20504;-54
2023/09/18 07:10:18;;;;;;;19.90;13.43;;;18.70;99.90;;;;;;5093517;28;20036;-56
2023/09/18 07:12:44;;;;;;;23.92;13.63;;;18.60;99.90;;;;;;5093660;28;20043;-56
2023/09/18 07:15:10;;;;;;;24.30;13.68;;;18.70;99.90;;;;;;5092506;28;20036;-56
2023/09/18 07:17:36;;;;;;;22.67;13.60;;;18.60;99.90;;;;;;5093759;28;20117;-56
2023/09/18 07:20:09;;;;;;;19.05;13.25;;;18.60;99.90;;;;;;5093774;28;20444;-55
2023/09/18 07:22:35;;;;;;;27.80;14.90;;;18.60;99.90;;;;;;5093460;28;20036;-55
2023/09/18 07:25:00;;;;;;;22.58;15.00;;;18.60;99.90;;;;;;5092418;28;20505;-55
2023/09/18 07:27:26;;;;;;;19.17;15.68;;;18.60;99.90;;;;;;5092062;28;20496;-55
2023/09/18 07:29:55;;;;;;;20.35;15.10;;;18.70;99.90;;;;;;5093196;28;20035;-52
2023/09/18 07:32:20;;;;;;;;;;;18.60;99.90;;;;;;5092156;28;20459;-55
2023/09/18 07:34:47;;;;;;;21.80;15.90;;;18.70;99.90;;;;;;5091780;28;20003;-54
2023/09/18 07:37:12;;;;;;;25.33;15.93;;;18.70;99.90;;;;;;5093289;28;20075;-56
2023/09/18 07:39:42;;;;;;;27.55;15.65;;;18.60;99.90;;;;;;5093386;28;20125;-56
2023/09/18 07:42:08;;;;;;;37.70;17.67;;;18.60;99.90;;;;;;5091951;28;20036;-56
2023/09/18 07:44:33;;;;;;;20.48;15.85;;;18.60;99.90;;;;;;5092906;28;20081;-56
2023/09/18 07:47:01;;;;;;;30.05;18.10;;;18.60;99.90;;;;;;5093258;28;20467;-56
2023/09/18 07:49:26;;;;;;;20.80;17.02;;;18.60;99.90;;;;;;5093255;28;20137;-56
2023/09/18 07:51:52;;;;;;;30.70;18.27;;;18.60;99.90;;;;;;5093272;28;20429;-56
2023/09/18 07:54:17;;;;;;;27.02;17.92;;;18.50;99.90;;;;;;5092863;28;20113;-56
2023/09/18 07:56:43;;;;;;;19.80;17.27;;;18.50;99.90;;;;;;5090928;28;20040;-55
2023/09/18 07:59:10;;;;;;;26.45;17.73;;;18.40;99.90;;;;;;5089254;28;20135;-56
2023/09/18 08:01:36;;;;;;;29.73;20.02;;;18.50;99.90;;;;;;5092550;28;20080;-56
2023/09/18 08:04:02;;;;;;;29.88;19.30;;;18.50;99.90;;;;;;5092569;28;20086;-57
2023/09/18 08:06:28;;;;;;;21.05;16.42;;;18.50;99.90;;;;;;5092739;28;20419;-57
2023/09/18 08:08:54;;;;;;;23.13;17.25;;;18.40;99.90;;;;;;5092770;28;20085;-55
2023/09/18 08:11:19;;;;;;;24.70;18.30;;;18.50;99.90;;;;;;5092478;28;20027;-56
2023/09/18 08:13:45;;;;;;;24.75;17.98;;;18.50;99.90;;;;;;5092570;28;20508;-57
2023/09/18 08:16:11;;;;;;;23.13;17.05;;;18.70;99.90;;;;;;5092245;28;20504;-56
2023/09/18 08:18:40;;;;;;;25.10;17.95;;;18.50;99.90;;;;;;5092253;28;20118;-56
2023/09/18 08:21:08;;;;;;;24.38;17.73;;;18.50;99.90;;;;;;5079708;28;20052;-57
2023/09/18 08:23:36;;;;;;;28.60;19.23;;;18.50;99.90;;;;;;5092409;28;20028;-57
2023/09/18 08:26:03;;;;;;;23.70;16.25;;;18.70;99.90;;;;;;5079336;28;20032;-57
2023/09/18 08:28:29;;;;;;;24.10;17.15;;;18.60;99.90;;;;;;5092229;28;20040;-56
2023/09/18 08:30:55;;;;;;;24.08;16.65;;;18.70;99.90;;;;;;5092234;28;20039;-56
2023/09/18 08:33:21;;;;;;;20.85;15.98;;;18.60;99.90;;;;;;5091980;28;20032;-56
2023/09/18 08:35:46;;;;;;;18.75;14.98;;;18.50;99.90;;;;;;5092276;28;20044;-55
2023/09/18 08:38:14;;;;;;;20.02;15.07;;;18.70;99.90;;;;;;5091969;28;20036;-56
2023/09/18 08:40:42;;;;;;;18.52;13.85;;;18.50;99.90;;;;;;5091859;28;20036;-56
2023/09/18 08:43:10;;;;;;;18.60;13.50;;;18.60;99.90;;;;;;5092062;28;20028;-56
2023/09/18 08:45:40;;;;;;;16.77;12.85;;;18.50;99.90;;;;;;5092128;28;20047;-56
2023/09/18 08:48:06;;;;;;;23.25;14.05;;;18.60;99.90;;;;;;5091468;28;20040;-56
2023/09/18 08:50:33;;;;;;;18.02;12.73;;;18.50;99.90;;;;;;5083530;28;20039;-56
2023/09/18 08:52:59;;;;;;;17.10;13.38;;;18.70;99.90;;;;;;5091669;28;20094;-56
2023/09/18 08:55:25;;;;;;;17.10;13.55;;;18.80;99.90;;;;;;5091822;28;20040;-56
2023/09/18 08:57:53;;;;;;;18.45;14.07;;;18.70;99.90;;;;;;5091721;28;20200;-55
2023/09/18 09:00:19;;;;;;;16.27;13.88;;;18.70;99.90;;;;;;5091712;28;20032;-56
2023/09/18 09:02:45;;;;;;;18.83;15.02;;;18.90;99.90;;;;;;5091784;28;20040;-56
2023/09/18 09:05:11;;;;;;;17.80;14.00;;;18.70;99.90;;;;;;5091485;28;20048;-57
2023/09/18 09:07:37;;;;;;;19.40;15.40;;;19.00;99.90;;;;;;5091756;28;20119;-56
2023/09/18 09:10:04;;;;;;;22.00;14.15;;;18.90;99.90;;;;;;5091539;28;20119;-56
2023/09/18 09:12:58;;;;;;;16.70;14.05;;;18.80;99.90;;;;;;5091554;28;20040;-56
2023/09/18 09:15:32;;;;;;;20.67;15.23;;;18.90;99.90;;;;;;5091424;28;20044;-56
2023/09/18 09:18:08;;;;;;;18.67;14.65;;;18.80;99.90;;;;;;5091874;28;20050;-54
2023/09/18 09:20:35;;;;;;;17.75;14.38;;;19.00;99.90;;;;;;5091419;28;20490;-54
2023/09/18 09:23:08;;;;;;;18.90;14.40;;;18.90;99.90;;;;;;5091293;28;20048;-56
2023/09/18 09:25:36;;;;;;;16.90;13.60;;;18.90;99.90;;;;;;5091355;28;20047;-55
2023/09/18 09:28:07;;;;;;;19.30;13.73;;;18.90;99.90;;;;;;5091556;28;20059;-55
2023/09/18 09:30:35;;;;;;;21.27;13.90;;;19.10;99.90;;;;;;5091215;28;20047;-54
2023/09/18 09:33:04;;;;;;;17.92;14.10;;;19.00;99.90;;;;;;5090667;28;20393;-55
2023/09/18 09:35:32;;;;;;;21.33;14.07;;;19.10;99.90;;;;;;5091903;28;20044;-56
2023/09/18 09:38:01;;;;;;;20.33;14.23;;;19.10;99.90;;;;;;5091036;28;20036;-55
2023/09/18 09:40:29;;;;;;;18.92;14.70;;;19.20;99.90;;;;;;5091523;28;20040;-56
2023/09/18 09:43:04;;;;;;;17.93;14.70;;;19.20;99.90;;;;;;5091175;28;20051;-56
2023/09/18 09:45:35;;;;;;;18.55;15.02;;;19.20;99.90;;;;;;5091260;28;20024;-55
2023/09/18 09:48:06;;;;;;;17.10;14.52;;;19.30;99.90;;;;;;5091328;28;20106;-55
2023/09/18 09:50:33;;;;;;;16.73;14.80;;;19.20;99.90;;;;;;5091723;28;20032;-54
2023/09/18 09:52:59;;;;;;;16.75;14.25;;;19.20;99.90;;;;;;5090345;28;20040;-55
2023/09/18 09:55:30;;;;;;;19.73;14.80;;;19.20;99.90;;;;;;5091463;28;20040;-56
2023/09/18 09:57:59;;;;;;;23.35;15.15;;;19.30;99.90;;;;;;5091099;28;20027;-56
2023/09/18 10:00:49;;;;;;;19.58;16.27;;;19.30;99.90;;;;;;5093404;28;20040;-55
2023/09/18 10:03:16;;;;;;;18.38;15.90;;;19.50;99.90;;;;;;5094945;28;20040;-56
2023/09/18 10:05:45;;;;;;;21.48;15.80;;;19.40;99.90;;;;;;5094626;28;20169;-55
2023/09/18 10:08:26;;;;;;;22.58;16.65;;;19.60;99.90;;;;;;5094855;28;20111;-56
2023/09/18 10:10:58;;;;;;;19.77;17.58;;;19.60;99.90;;;;;;5094789;28;20493;-57
2023/09/18 10:13:31;;;;;;;21.65;16.75;;;19.60;99.90;;;;;;5094920;28;20051;-56
2023/09/18 10:16:02;;;;;;;21.38;18.17;;;19.60;99.90;;;;;;5094914;28;20192;-56
2023/09/18 10:18:36;;;;;;;19.08;17.05;;;19.80;99.90;;;;;;5094619;28;20547;-56
2023/09/18 10:21:20;;;;;;;19.75;17.40;;;19.80;99.90;;;;;;5086790;28;20115;-55
2023/09/18 10:24:12;;;;;;;21.27;17.63;;;19.80;99.90;;;;;;5094808;28;20060;-55
2023/09/18 10:26:46;;;;;;;19.35;17.17;;;20.10;99.90;;;;;;5094739;28;20043;-56
2023/09/18 10:29:15;;;;;;;20.20;17.42;;;20.10;99.90;;;;;;5093274;28;20031;-55
2023/09/18 10:31:43;;;;;;;19.98;17.92;;;20.30;99.90;;;;;;5094516;28;20489;-55
2023/09/18 10:34:10;;;;;;;20.08;17.92;;;20.40;99.90;;;;;;5094147;28;20043;-56
2023/09/18 10:36:37;;;;;;;20.85;18.05;;;20.30;99.90;;;;;;5093191;28;20457;-57
2023/09/18 10:39:08;;;;;;;21.25;17.17;;;20.40;99.90;;;;;;5094402;28;20047;-57
2023/09/18 10:41:34;;;;;;;18.63;13.95;;;20.50;99.90;;;;;;5075909;28;20032;-56
2023/09/18 10:44:01;;;;;;;18.33;16.33;;;20.60;99.90;;;;;;5094130;28;20036;-56
2023/09/18 10:46:27;;;;;;;15.75;13.90;;;20.60;99.90;;;;;;5093962;28;20040;-56
2023/09/18 10:48:54;;;;;;;14.93;11.90;;;20.80;99.90;;;;;;5090074;28;20028;-54
2023/09/18 10:51:22;;;;;;;12.75;11.27;;;21.00;99.90;;;;;;5087477;28;20047;-55
2023/09/18 10:53:48;;;;;;;14.70;10.40;;;21.10;99.90;;;;;;5094218;28;20115;-56
2023/09/18 10:56:17;;;;;;;11.25;10.10;;;21.20;99.90;;;;;;5094102;28;20047;-53
2023/09/18 10:58:43;;;;;;;13.23;9.13;;;21.30;99.90;;;;;;5093790;28;20039;-54
2023/09/18 11:01:12;;;;;;;10.98;8.40;;;21.30;99.90;;;;;;5094207;28;20040;-55
2023/09/18 11:03:38;;;;;;;10.05;9.05;;;21.30;99.90;;;;;;5093676;28;20039;-54
2023/09/18 11:06:12;;;;;;;11.18;8.57;;;21.20;99.90;;;;;;5075944;28;20442;-57
2023/09/18 11:08:45;;;;;;;11.82;8.25;;;21.30;99.90;;;;;;5093567;28;20035;-54
2023/09/18 11:11:14;;;;;;;9.38;7.40;;;21.40;99.90;;;;;;5093225;28;20087;-55
2023/09/18 11:13:53;;;;;;;8.45;6.80;;;21.60;99.90;;;;;;5093779;28;20036;-56
2023/09/18 11:16:25;;;;;;;7.28;6.57;;;21.70;99.90;;;;;;5092369;28;20043;-54
2023/09/18 11:18:52;;;;;;;10.23;7.07;;;21.90;99.90;;;;;;5093457;28;20397;-56
2023/09/18 11:21:22;;;;;;;8.07;6.18;;;21.90;99.90;;;;;;5093493;28;20122;-56
2023/09/18 11:24:26;;;;;;;11.75;6.55;;;21.80;99.90;;;;;;5093234;28;20068;-54
2023/09/18 11:26:52;;;;;;;9.55;6.40;;;21.80;99.90;;;;;;5071007;28;20040;-56
2023/09/18 11:29:22;;;;;;;6.75;5.90;;;21.60;99.90;;;;;;5070869;28;20448;-56
2023/09/18 11:31:53;;;;;;;6.13;5.20;;;21.60;99.90;;;;;;5070691;28;20056;-56
2023/09/18 11:34:23;;;;;;;6.43;5.18;;;21.70;99.90;;;;;;5070711;28;20075;-54
2023/09/18 11:36:50;;;;;;;7.43;4.63;;;21.90;99.90;;;;;;5053760;28;20098;-57
2023/09/18 11:39:37;;;;;;;9.05;4.75;;;22.10;99.90;;;;;;5070775;28;20535;-56
2023/09/18 11:42:10;;;;;;;6.45;4.47;;;22.20;99.90;;;;;;5070627;28;20044;-55
2023/09/18 11:44:40;;;;;;;5.50;3.97;;;22.40;99.90;;;;;;5070570;28;20045;-55
2023/09/18 11:47:16;;;;;;;5.05;4.38;;;22.40;99.90;;;;;;5070795;28;20059;-56
2023/09/18 11:49:50;;;;;;;7.05;4.45;;;22.40;99.90;;;;;;5070299;28;20046;-55
2023/09/18 11:52:17;;;;;;;6.63;4.80;;;22.40;99.90;;;;;;5070497;28;20045;-55
2023/09/18 11:54:46;;;;;;;7.53;4.60;;;22.50;99.90;;;;;;5070216;28;20144;-56
2023/09/18 11:57:13;;;;;;;7.32;4.55;;;22.40;99.90;;;;;;5070311;28;20473;-55
2023/09/18 11:59:42;;;;;;;8.40;5.03;;;22.30;99.90;;;;;;5070186;28;20040;-56
2023/09/18 12:02:08;;;;;;;10.18;4.28;;;22.40;99.90;;;;;;5071103;28;20531;-55
2023/09/18 12:04:35;;;;;;;10.02;4.03;;;22.30;99.90;;;;;;5092746;28;20116;-56
2023/09/18 12:07:02;;;;;;;7.78;4.18;;;22.30;99.90;;;;;;5092620;28;20047;-56
2023/09/18 12:09:32;;;;;;;5.75;3.92;;;22.40;99.90;;;;;;5091482;28;20576;-56
2023/09/18 12:12:05;;;;;;;8.15;3.90;;;22.50;99.90;;;;;;5092575;28;20040;-56
2023/09/18 12:14:33;;;;;;;5.55;3.72;;;22.80;99.90;;;;;;5092040;28;20490;-57
2023/09/18 12:17:01;;;;;;;6.00;3.85;;;22.90;99.90;;;;;;5092434;28;20127;-56
2023/09/18 12:19:27;;;;;;;6.32;3.30;;;22.90;99.90;;;;;;5092449;28;20052;-57
2023/09/18 12:21:52;;;;;;;5.22;3.10;;;23.00;99.90;;;;;;5090363;28;20383;-55
2023/09/18 12:24:22;;;;;;;6.10;3.88;;;23.00;99.90;;;;;;5092144;28;20032;-53
2023/09/18 12:26:49;;;;;;;6.95;3.42;;;23.00;99.90;;;;;;5090873;28;20104;-55
2023/09/18 12:29:15;;;;;;;6.82;3.58;;;23.00;99.90;;;;;;5082228;28;20036;-56
2023/09/18 12:31:46;;;;;;;5.82;3.53;;;22.90;99.90;;;;;;5088003;28;20094;-56
2023/09/18 12:34:21;;;;;;;8.48;3.53;;;22.70;99.90;;;;;;5090925;28;20044;-56